WetterOnline ( https://www.wetteronline.de )

Wetter aktuell Neuhofen

Aktuelles Wetter: Mannheim (100m)

6-stündlich | Neueste Meldungen
Ortszeit Temperatur Wetter
Di, 10.12. 1:00 5.2° C fast wolkenlos
Mo, 09.12. 19:00 7.1° C bedeckt
Mo, 09.12. 13:00 8.1° C Sprühregen
Mo, 09.12. 7:00 7.7° C Sprühregen
Mo, 09.12. 1:00 9.2° C bedeckt
So, 08.12. 19:00 10.4° C bewölkt
So, 08.12. 13:00 10.7° C bedeckt
So, 08.12. 7:00 8.9° C bedeckt
Ortszeit Temperatur Wetter
Di, 10.12. 3:00 4.2° C fast wolkenlos
Di, 10.12. 2:40 4.2° C wolkenlos
Di, 10.12. 2:30 4.3° C wolkenlos
Di, 10.12. 2:20 4.3° C wolkenlos
Di, 10.12. 2:10 4.4° C wolkenlos
Di, 10.12. 2:00 4.6° C wolkenlos
Di, 10.12. 1:50 4.6° C wolkenlos
Di, 10.12. 1:30 5.1° C fast wolkenlos
Di, 10.12. 1:00 5.2° C fast wolkenlos
Di, 10.12. 0:30 5.4° C fast wolkenlos
Di, 10.12. 0:00 5.9° C wolkig
Mo, 09.12. 23:30 6.5° C bedeckt
Ortszeit Relative Feuchte Sichtweite
Di, 10.12. 1:00 76% 27 km
Mo, 09.12. 19:00 81% 70 km
Mo, 09.12. 13:00 82% 40 km
Mo, 09.12. 7:00 77% 40 km
Mo, 09.12. 1:00 73% 45 km
So, 08.12. 19:00 87% 70 km
So, 08.12. 13:00 74% 70 km
So, 08.12. 7:00 77% 70 km
Ortszeit Relative Feuchte Sichtweite
Di, 10.12. 3:00 77% 27 km
Di, 10.12. 2:40 78% -
Di, 10.12. 2:30 80% 26 km
Di, 10.12. 2:20 80% -
Di, 10.12. 2:10 79% -
Di, 10.12. 2:00 78% 26 km
Di, 10.12. 1:50 78% -
Di, 10.12. 1:30 75% 26 km
Di, 10.12. 1:00 76% 27 km
Di, 10.12. 0:30 77% 30 km
Di, 10.12. 0:00 78% 40 km
Mo, 09.12. 23:30 78% 45 km
Ortszeit Niederschlagsmenge Niederschlagsart
Di, 10.12. 1:00 0.2 l/m2 in 6 Std. Regen
Mo, 09.12. 19:00 2 l/m2 in 12 Std. Regen
Mo, 09.12. 13:00 0.4 l/m2 in 6 Std. Regen
Mo, 09.12. 7:00 0.4 l/m2 in 12 Std. Regen
Mo, 09.12. 1:00 0.4 l/m2 in 6 Std. Regen
So, 08.12. 19:00 0.1 l/m2 in 12 Std. Regen
So, 08.12. 13:00 0.0 l/m2 in 6 Std. -
So, 08.12. 7:00 0.0 l/m2 in 12 Std. -
Ortszeit Niederschlagsmenge Niederschlagsart
Di, 10.12. 3:00 0.0 l/m2 in 1 Std. -
Di, 10.12. 2:40 keine Meldung -
Di, 10.12. 2:30 0.0 l/m2 in 1 Std. -
Di, 10.12. 2:20 keine Meldung -
Di, 10.12. 2:10 keine Meldung -
Di, 10.12. 2:00 0.0 l/m2 in 1 Std. -
Di, 10.12. 1:50 keine Meldung -
Di, 10.12. 1:30 0.0 l/m2 in 1 Std. -
Di, 10.12. 1:00 0.0 l/m2 in 1 Std. Regen
Di, 10.12. 0:30 0.0 l/m2 in 1 Std. -
Di, 10.12. 0:00 0.0 l/m2 in 1 Std. -
Mo, 09.12. 23:30 0.0 l/m2 in 1 Std. -
Ortszeit Stärke Spitze Richtung
km/h Bft. km/h Grad Sektor
Di, 10.12. 1:00 18 3 36 300° NW
Mo, 09.12. 19:00 14 3 40 240° SW
Mo, 09.12. 13:00 18 3 47 200° S
Mo, 09.12. 7:00 22 4 47 180° S
Mo, 09.12. 1:00 18 3 47 230° SW
So, 08.12. 19:00 24 4 52 180° S
So, 08.12. 13:00 28 4 48 200° S
So, 08.12. 7:00 19 3 33 170° S
Ortszeit Stärke Spitze Richtung
km/h Bft. km/h Grad Sektor
Di, 10.12. 3:00 13 3 22 300° NW
Di, 10.12. 2:40 14 3 - 290° W
Di, 10.12. 2:30 14 3 22 290° W
Di, 10.12. 2:20 14 3 - 290° W
Di, 10.12. 2:10 15 3 - 300° NW
Di, 10.12. 2:00 17 3 33 300° NW
Di, 10.12. 1:50 17 3 - 300° NW
Di, 10.12. 1:30 18 3 32 300° NW
Di, 10.12. 1:00 18 3 36 300° NW
Di, 10.12. 0:30 18 3 36 310° NW
Di, 10.12. 0:00 22 4 36 310° NW
Mo, 09.12. 23:30 22 4 33 320° NW
Ortszeit Untergrenze Bedeckung Gattung
total tief tief mittel hoch
Di, 10.12. 1:00 1500 m 1/8 1/8 - - -
Mo, 09.12. 19:00 930 m 8/8 8/8 - - -
Mo, 09.12. 13:00 870 m 7/8 7/8 - - -
Mo, 09.12. 7:00 1050 m 7/8 7/8 - - -
Mo, 09.12. 1:00 870 m 8/8 8/8 - - -
So, 08.12. 19:00 660 m 7/8 8/8 - - -
So, 08.12. 13:00 840 m 8/8 8/8 - - -
So, 08.12. 7:00 1050 m 8/8 8/8 - - -
Ortszeit Bedeckungsgrad in Achtel und Wolkenuntergrenze
Di, 10.12. 3:00 1(960m)
Di, 10.12. 2:40 keine Wolken
Di, 10.12. 2:30 keine Wolken
Di, 10.12. 2:20 keine Wolken
Di, 10.12. 2:10 keine Wolken
Di, 10.12. 2:00 keine Wolken
Di, 10.12. 1:50 keine Wolken
Di, 10.12. 1:30 1(1500m)
Di, 10.12. 1:00 1(1500m)
Di, 10.12. 0:30 1(3000m)
Di, 10.12. 0:00 1(960m) 4(2400m) 6(3000m)
Mo, 09.12. 23:30 4(1080m) 8(2100m)
Ortszeit Luftdruck NN (hPa) Tendenz (hPa in 3 Std.)
Di, 10.12. 1:00 1020 + 5,5
Mo, 09.12. 19:00 1009 + 3,7
Mo, 09.12. 13:00 1003 + 0,1
Mo, 09.12. 7:00 1003 - 1,1
Mo, 09.12. 1:00 1005 + 0,3
So, 08.12. 19:00 1005 - 1,6
So, 08.12. 13:00 1009 - 2,8
So, 08.12. 7:00 1014 - 2,1
Ortszeit Luftdruck NN (hPa) Tendenz (hPa in 3 Std.)
Di, 10.12. 3:00 1023 + 4,5
Di, 10.12. 2:40 1023 keine Meldung
Di, 10.12. 2:30 1022 + 4,5
Di, 10.12. 2:20 1022 keine Meldung
Di, 10.12. 2:10 1022 keine Meldung
Di, 10.12. 2:00 1022 + 5,0
Di, 10.12. 1:50 1022 keine Meldung
Di, 10.12. 1:30 1021 + 5,1
Di, 10.12. 1:00 1020 + 5,5
Di, 10.12. 0:30 1019 + 5,7
Di, 10.12. 0:00 1019 + 5,8
Mo, 09.12. 23:30 1018 + 6,2
Ortszeit Schneehöhe (cm)
Di, 10.12. 1:00 0
Mo, 09.12. 19:00 0
Mo, 09.12. 13:00 0
Mo, 09.12. 7:00 0
Mo, 09.12. 1:00 0
So, 08.12. 19:00 0
So, 08.12. 13:00 0
So, 08.12. 7:00 0
Ortszeit Schneehöhe (cm)
Di, 10.12. 3:00 0
Di, 10.12. 2:40 0
Di, 10.12. 2:30 0
Di, 10.12. 2:20 0
Di, 10.12. 2:10 0
Di, 10.12. 2:00 0
Di, 10.12. 1:50 0
Di, 10.12. 1:30 0
Di, 10.12. 1:00 0
Di, 10.12. 0:30 0
Di, 10.12. 0:00 0
Mo, 09.12. 23:30 0
Link zu dieser Seite / Seite empfehlen

Das Wetter in ...